sensor_id;sensor_type;location;lat;lon;timestamp;pressure;altitude;pressure_sealevel;temperature;humidity
19590;BME280;12231;42.782;23.388;2022-07-26T00:02:02;95324.09;;;25.13;65.91
19590;BME280;12231;42.782;23.388;2022-07-26T00:04:28;95322.22;;;25.07;66.04
19590;BME280;12231;42.782;23.388;2022-07-26T00:06:54;95317.00;;;25.13;65.89
19590;BME280;12231;42.782;23.388;2022-07-26T00:09:19;95313.19;;;25.16;65.80
19590;BME280;12231;42.782;23.388;2022-07-26T00:11:45;95312.19;;;25.17;65.70
19590;BME280;12231;42.782;23.388;2022-07-26T00:14:10;95315.34;;;25.27;65.09
19590;BME280;12231;42.782;23.388;2022-07-26T00:16:37;95311.78;;;25.20;65.30
19590;BME280;12231;42.782;23.388;2022-07-26T00:19:04;95310.63;;;25.22;65.65
19590;BME280;12231;42.782;23.388;2022-07-26T00:21:29;95314.25;;;25.21;65.22
19590;BME280;12231;42.782;23.388;2022-07-26T00:23:55;95314.31;;;25.28;64.84
19590;BME280;12231;42.782;23.388;2022-07-26T00:26:21;95311.09;;;25.32;64.83
19590;BME280;12231;42.782;23.388;2022-07-26T00:28:46;95304.81;;;25.12;65.41
19590;BME280;12231;42.782;23.388;2022-07-26T00:31:12;95301.16;;;25.13;65.49
19590;BME280;12231;42.782;23.388;2022-07-26T00:33:38;95302.78;;;25.14;65.21
19590;BME280;12231;42.782;23.388;2022-07-26T00:36:04;95298.16;;;25.16;65.18
19590;BME280;12231;42.782;23.388;2022-07-26T00:38:30;95301.09;;;25.07;65.13
19590;BME280;12231;42.782;23.388;2022-07-26T00:40:55;95307.50;;;24.98;66.09
19590;BME280;12231;42.782;23.388;2022-07-26T00:43:21;95302.66;;;25.01;65.64
19590;BME280;12231;42.782;23.388;2022-07-26T00:45:46;95305.22;;;24.95;65.77
19590;BME280;12231;42.782;23.388;2022-07-26T00:48:12;95298.72;;;24.76;66.59
19590;BME280;12231;42.782;23.388;2022-07-26T00:50:37;95304.53;;;24.86;66.18
19590;BME280;12231;42.782;23.388;2022-07-26T00:53:03;95298.06;;;24.89;65.89
19590;BME280;12231;42.782;23.388;2022-07-26T00:55:28;95307.38;;;24.85;66.35
19590;BME280;12231;42.782;23.388;2022-07-26T00:57:54;95314.34;;;24.92;66.12
19590;BME280;12231;42.782;23.388;2022-07-26T01:00:23;95318.81;;;24.77;66.15
19590;BME280;12231;42.782;23.388;2022-07-26T01:02:53;95316.66;;;24.52;65.96
19590;BME280;12231;42.782;23.388;2022-07-26T01:05:19;95319.66;;;24.49;67.06
19590;BME280;12231;42.782;23.388;2022-07-26T01:07:45;95312.28;;;24.44;66.74
19590;BME280;12231;42.782;23.388;2022-07-26T01:10:12;95308.00;;;23.99;67.87
19590;BME280;12231;42.782;23.388;2022-07-26T01:12:39;95316.44;;;23.35;69.74
19590;BME280;12231;42.782;23.388;2022-07-26T01:15:06;95318.56;;;22.78;72.18
19590;BME280;12231;42.782;23.388;2022-07-26T01:17:32;95319.81;;;22.60;72.70
19590;BME280;12231;42.782;23.388;2022-07-26T01:19:57;95322.84;;;22.33;73.97
19590;BME280;12231;42.782;23.388;2022-07-26T01:22:22;95316.28;;;22.29;76.48
19590;BME280;12231;42.782;23.388;2022-07-26T01:24:48;95315.88;;;22.48;75.96
19590;BME280;12231;42.782;23.388;2022-07-26T01:27:13;95314.94;;;22.79;74.75
19590;BME280;12231;42.782;23.388;2022-07-26T01:29:39;95310.06;;;22.99;73.44
19590;BME280;12231;42.782;23.388;2022-07-26T01:32:05;95314.03;;;23.18;72.44
19590;BME280;12231;42.782;23.388;2022-07-26T01:34:31;95305.19;;;23.19;72.14
19590;BME280;12231;42.782;23.388;2022-07-26T01:36:56;95307.53;;;23.36;71.17
19590;BME280;12231;42.782;23.388;2022-07-26T01:39:22;95304.19;;;23.42;70.19
19590;BME280;12231;42.782;23.388;2022-07-26T01:41:47;95302.94;;;23.38;70.00
19590;BME280;12231;42.782;23.388;2022-07-26T01:44:13;95298.56;;;23.45;70.10
19590;BME280;12231;42.782;23.388;2022-07-26T01:46:38;95298.25;;;23.48;69.75
19590;BME280;12231;42.782;23.388;2022-07-26T01:49:04;95297.31;;;23.41;69.97
19590;BME280;12231;42.782;23.388;2022-07-26T01:51:31;95303.47;;;23.26;70.75
19590;BME280;12231;42.782;23.388;2022-07-26T01:53:56;95300.28;;;23.16;71.05
19590;BME280;12231;42.782;23.388;2022-07-26T01:56:22;95303.75;;;23.08;71.25
19590;BME280;12231;42.782;23.388;2022-07-26T01:58:47;95303.94;;;23.06;71.52
19590;BME280;12231;42.782;23.388;2022-07-26T02:01:13;95304.72;;;23.15;71.41
19590;BME280;12231;42.782;23.388;2022-07-26T02:03:39;95308.63;;;23.27;70.94
19590;BME280;12231;42.782;23.388;2022-07-26T02:06:04;95318.72;;;23.38;70.64
19590;BME280;12231;42.782;23.388;2022-07-26T02:08:30;95315.50;;;23.28;70.84
19590;BME280;12231;42.782;23.388;2022-07-26T02:10:55;95314.72;;;23.42;70.39
19590;BME280;12231;42.782;23.388;2022-07-26T02:15:55;95320.97;;;23.64;69.65
19590;BME280;12231;42.782;23.388;2022-07-26T02:18:23;95319.09;;;23.72;69.45
19590;BME280;12231;42.782;23.388;2022-07-26T02:20:49;95318.63;;;23.69;69.29
19590;BME280;12231;42.782;23.388;2022-07-26T02:23:14;95316.66;;;23.71;69.08
19590;BME280;12231;42.782;23.388;2022-07-26T02:25:40;95314.22;;;23.47;68.91
19590;BME280;12231;42.782;23.388;2022-07-26T02:28:05;95317.94;;;23.30;69.17
19590;BME280;12231;42.782;23.388;2022-07-26T02:30:31;95319.13;;;23.19;69.69
19590;BME280;12231;42.782;23.388;2022-07-26T02:32:56;95316.19;;;23.22;69.73
19590;BME280;12231;42.782;23.388;2022-07-26T02:35:22;95321.47;;;23.45;68.92
19590;BME280;12231;42.782;23.388;2022-07-26T02:37:47;95317.78;;;23.31;69.24
19590;BME280;12231;42.782;23.388;2022-07-26T02:40:13;95312.81;;;23.36;69.23
19590;BME280;12231;42.782;23.388;2022-07-26T02:42:38;95321.72;;;23.35;69.05
19590;BME280;12231;42.782;23.388;2022-07-26T02:45:04;95323.63;;;23.41;69.16
19590;BME280;12231;42.782;23.388;2022-07-26T02:47:30;95333.50;;;23.39;68.98
19590;BME280;12231;42.782;23.388;2022-07-26T02:49:57;95335.47;;;23.37;68.64
19590;BME280;12231;42.782;23.388;2022-07-26T02:52:22;95334.91;;;23.19;69.71
19590;BME280;12231;42.782;23.388;2022-07-26T02:54:48;95324.41;;;23.27;69.25
19590;BME280;12231;42.782;23.388;2022-07-26T02:57:13;95332.13;;;23.29;69.55
19590;BME280;12231;42.782;23.388;2022-07-26T02:59:39;95329.78;;;23.26;69.19
19590;BME280;12231;42.782;23.388;2022-07-26T03:02:04;95331.47;;;23.27;69.72
19590;BME280;12231;42.782;23.388;2022-07-26T03:04:30;95340.03;;;23.21;69.18
19590;BME280;12231;42.782;23.388;2022-07-26T03:06:55;95337.59;;;23.11;69.38
19590;BME280;12231;42.782;23.388;2022-07-26T03:09:21;95337.28;;;23.14;68.93
19590;BME280;12231;42.782;23.388;2022-07-26T03:11:46;95342.34;;;23.16;68.59
19590;BME280;12231;42.782;23.388;2022-07-26T03:14:11;95341.72;;;23.14;69.03
19590;BME280;12231;42.782;23.388;2022-07-26T03:16:37;95340.97;;;22.97;68.85
19590;BME280;12231;42.782;23.388;2022-07-26T03:19:03;95332.91;;;22.98;69.43
19590;BME280;12231;42.782;23.388;2022-07-26T03:21:28;95345.22;;;22.98;69.02
19590;BME280;12231;42.782;23.388;2022-07-26T03:23:53;95348.91;;;22.89;70.97
19590;BME280;12231;42.782;23.388;2022-07-26T03:26:19;95349.53;;;22.99;70.34
19590;BME280;12231;42.782;23.388;2022-07-26T03:28:45;95353.38;;;23.11;70.88
19590;BME280;12231;42.782;23.388;2022-07-26T03:31:11;95350.81;;;23.26;70.51
19590;BME280;12231;42.782;23.388;2022-07-26T03:33:37;95349.22;;;23.47;70.04
19590;BME280;12231;42.782;23.388;2022-07-26T03:36:04;95350.41;;;23.67;68.26
19590;BME280;12231;42.782;23.388;2022-07-26T03:38:29;95347.72;;;23.90;67.35
19590;BME280;12231;42.782;23.388;2022-07-26T03:40:55;95346.69;;;24.13;66.26
19590;BME280;12231;42.782;23.388;2022-07-26T03:43:20;95348.09;;;24.38;65.37
19590;BME280;12231;42.782;23.388;2022-07-26T03:45:46;95341.09;;;24.60;64.58
19590;BME280;12231;42.782;23.388;2022-07-26T03:48:11;95340.00;;;24.84;62.99
19590;BME280;12231;42.782;23.388;2022-07-26T03:50:37;95340.13;;;25.11;62.21
19590;BME280;12231;42.782;23.388;2022-07-26T03:53:02;95336.34;;;25.35;61.39
19590;BME280;12231;42.782;23.388;2022-07-26T03:55:28;95336.28;;;25.49;60.34
19590;BME280;12231;42.782;23.388;2022-07-26T03:58:12;95334.34;;;25.79;60.28
19590;BME280;12231;42.782;23.388;2022-07-26T04:00:38;95326.13;;;25.95;59.48
19590;BME280;12231;42.782;23.388;2022-07-26T04:03:03;95329.53;;;26.17;59.31
19590;BME280;12231;42.782;23.388;2022-07-26T04:05:29;95335.00;;;26.43;58.00
19590;BME280;12231;42.782;23.388;2022-07-26T04:07:54;95334.59;;;26.67;56.68
19590;BME280;12231;42.782;23.388;2022-07-26T04:10:20;95337.56;;;27.05;55.75
19590;BME280;12231;42.782;23.388;2022-07-26T04:12:46;95332.72;;;27.15;55.15
19590;BME280;12231;42.782;23.388;2022-07-26T04:15:11;95335.69;;;27.52;53.86
19590;BME280;12231;42.782;23.388;2022-07-26T04:17:38;95335.28;;;27.55;53.69
19590;BME280;12231;42.782;23.388;2022-07-26T04:20:05;95331.72;;;27.89;53.13
19590;BME280;12231;42.782;23.388;2022-07-26T04:22:32;95332.72;;;28.07;52.70
19590;BME280;12231;42.782;23.388;2022-07-26T04:24:58;95333.09;;;28.37;51.77
19590;BME280;12231;42.782;23.388;2022-07-26T04:27:23;95327.75;;;28.63;51.54
19590;BME280;12231;42.782;23.388;2022-07-26T04:29:49;95325.84;;;28.90;50.67
19590;BME280;12231;42.782;23.388;2022-07-26T04:32:14;95322.06;;;29.54;48.94
19590;BME280;12231;42.782;23.388;2022-07-26T04:34:40;95321.56;;;29.64;48.85
19590;BME280;12231;42.782;23.388;2022-07-26T04:37:05;95320.97;;;29.62;49.22
19590;BME280;12231;42.782;23.388;2022-07-26T04:39:31;95321.25;;;29.85;48.44
19590;BME280;12231;42.782;23.388;2022-07-26T04:41:56;95321.03;;;30.36;47.56
19590;BME280;12231;42.782;23.388;2022-07-26T04:44:21;95320.47;;;30.70;47.43
19590;BME280;12231;42.782;23.388;2022-07-26T04:46:47;95316.56;;;31.09;46.58
19590;BME280;12231;42.782;23.388;2022-07-26T04:49:12;95311.84;;;31.81;44.47
19590;BME280;12231;42.782;23.388;2022-07-26T04:51:38;95314.00;;;32.14;43.53
19590;BME280;12231;42.782;23.388;2022-07-26T04:54:03;95320.88;;;32.45;43.26
19590;BME280;12231;42.782;23.388;2022-07-26T04:56:29;95325.06;;;32.64;42.50
19590;BME280;12231;42.782;23.388;2022-07-26T04:58:54;95326.00;;;32.23;43.88
19590;BME280;12231;42.782;23.388;2022-07-26T05:01:20;95320.41;;;32.59;42.62
19590;BME280;12231;42.782;23.388;2022-07-26T05:03:45;95318.53;;;32.83;42.30
19590;BME280;12231;42.782;23.388;2022-07-26T05:06:11;95316.84;;;33.16;41.64
19590;BME280;12231;42.782;23.388;2022-07-26T05:08:36;95320.19;;;33.63;41.13
19590;BME280;12231;42.782;23.388;2022-07-26T05:11:02;95311.97;;;33.98;40.02
19590;BME280;12231;42.782;23.388;2022-07-26T05:13:28;95314.13;;;33.84;40.72
19590;BME280;12231;42.782;23.388;2022-07-26T05:15:53;95305.19;;;34.23;39.61
19590;BME280;12231;42.782;23.388;2022-07-26T05:18:19;95302.47;;;34.56;38.79
19590;BME280;12231;42.782;23.388;2022-07-26T05:20:44;95313.59;;;33.54;40.66
19590;BME280;12231;42.782;23.388;2022-07-26T05:23:10;95306.78;;;34.57;39.29
19590;BME280;12231;42.782;23.388;2022-07-26T05:25:36;95305.38;;;35.15;38.54
19590;BME280;12231;42.782;23.388;2022-07-26T05:28:02;95307.63;;;35.93;37.10
19590;BME280;12231;42.782;23.388;2022-07-26T05:30:28;95301.34;;;35.34;37.29
19590;BME280;12231;42.782;23.388;2022-07-26T05:32:54;95308.31;;;35.35;37.60
19590;BME280;12231;42.782;23.388;2022-07-26T05:35:19;95303.91;;;34.86;38.53
19590;BME280;12231;42.782;23.388;2022-07-26T05:37:45;95300.66;;;35.43;38.25
19590;BME280;12231;42.782;23.388;2022-07-26T05:40:11;95303.81;;;36.20;36.69
19590;BME280;12231;42.782;23.388;2022-07-26T05:42:36;95299.72;;;36.44;35.52
19590;BME280;12231;42.782;23.388;2022-07-26T05:45:06;95299.41;;;37.44;34.05
19590;BME280;12231;42.782;23.388;2022-07-26T05:47:31;95298.63;;;37.49;34.30
19590;BME280;12231;42.782;23.388;2022-07-26T05:49:57;95292.78;;;37.05;34.22
19590;BME280;12231;42.782;23.388;2022-07-26T05:52:22;95296.03;;;37.12;34.42
19590;BME280;12231;42.782;23.388;2022-07-26T05:54:48;95300.09;;;36.68;35.12
19590;BME280;12231;42.782;23.388;2022-07-26T05:57:13;95291.19;;;37.96;33.32
19590;BME280;12231;42.782;23.388;2022-07-26T05:59:39;95286.78;;;38.90;32.03
19590;BME280;12231;42.782;23.388;2022-07-26T06:02:04;95281.41;;;39.49;31.03
19590;BME280;12231;42.782;23.388;2022-07-26T06:04:32;95285.81;;;40.51;29.71
19590;BME280;12231;42.782;23.388;2022-07-26T06:06:57;95284.03;;;40.94;29.81
19590;BME280;12231;42.782;23.388;2022-07-26T06:09:23;95284.38;;;41.34;28.54
19590;BME280;12231;42.782;23.388;2022-07-26T06:11:49;95267.50;;;42.30;27.24
19590;BME280;12231;42.782;23.388;2022-07-26T06:14:14;95277.59;;;40.61;30.33
19590;BME280;12231;42.782;23.388;2022-07-26T06:16:39;95271.53;;;40.98;29.15
19590;BME280;12231;42.782;23.388;2022-07-26T06:19:05;95274.03;;;41.36;29.01
19590;BME280;12231;42.782;23.388;2022-07-26T06:21:30;95263.34;;;39.39;31.91
19590;BME280;12231;42.782;23.388;2022-07-26T06:23:56;95274.59;;;38.98;32.26
19590;BME280;12231;42.782;23.388;2022-07-26T06:26:21;95267.19;;;38.50;33.52
19590;BME280;12231;42.782;23.388;2022-07-26T06:28:48;95269.22;;;38.98;32.02
19590;BME280;12231;42.782;23.388;2022-07-26T06:31:16;95262.78;;;40.82;29.78
19590;BME280;12231;42.782;23.388;2022-07-26T06:33:42;95261.69;;;41.86;28.44
19590;BME280;12231;42.782;23.388;2022-07-26T06:36:07;95259.50;;;42.39;28.37
19590;BME280;12231;42.782;23.388;2022-07-26T06:38:33;95262.56;;;42.64;27.43
19590;BME280;12231;42.782;23.388;2022-07-26T06:40:58;95252.50;;;42.51;27.79
19590;BME280;12231;42.782;23.388;2022-07-26T06:43:24;95254.75;;;42.76;27.27
19590;BME280;12231;42.782;23.388;2022-07-26T06:45:49;95248.50;;;43.03;27.10
19590;BME280;12231;42.782;23.388;2022-07-26T06:48:15;95258.19;;;40.54;29.88
19590;BME280;12231;42.782;23.388;2022-07-26T06:50:40;95255.06;;;40.42;30.46
19590;BME280;12231;42.782;23.388;2022-07-26T06:53:06;95250.31;;;39.61;32.33
19590;BME280;12231;42.782;23.388;2022-07-26T06:55:31;95249.59;;;40.47;29.92
19590;BME280;12231;42.782;23.388;2022-07-26T06:57:56;95253.25;;;41.13;29.78
19590;BME280;12231;42.782;23.388;2022-07-26T07:00:22;95252.88;;;41.20;28.89
19590;BME280;12231;42.782;23.388;2022-07-26T07:02:47;95246.28;;;40.26;31.23
19590;BME280;12231;42.782;23.388;2022-07-26T07:05:13;95247.28;;;37.85;35.00
19590;BME280;12231;42.782;23.388;2022-07-26T07:07:38;95243.69;;;38.70;32.86
19590;BME280;12231;42.782;23.388;2022-07-26T07:10:04;95242.28;;;38.83;32.84
19590;BME280;12231;42.782;23.388;2022-07-26T07:12:30;95241.09;;;38.30;35.05
19590;BME280;12231;42.782;23.388;2022-07-26T07:14:56;95238.78;;;37.22;36.31
19590;BME280;12231;42.782;23.388;2022-07-26T07:17:21;95236.59;;;38.94;33.93
19590;BME280;12231;42.782;23.388;2022-07-26T07:19:46;95242.03;;;38.74;33.89
19590;BME280;12231;42.782;23.388;2022-07-26T07:22:13;95240.56;;;40.85;30.73
19590;BME280;12231;42.782;23.388;2022-07-26T07:24:39;95231.78;;;40.69;30.53
19590;BME280;12231;42.782;23.388;2022-07-26T07:27:06;95239.34;;;41.20;30.55
19590;BME280;12231;42.782;23.388;2022-07-26T07:29:32;95236.09;;;39.46;31.73
19590;BME280;12231;42.782;23.388;2022-07-26T07:31:57;95235.84;;;40.15;31.59
19590;BME280;12231;42.782;23.388;2022-07-26T07:34:23;95233.50;;;40.03;31.87
19590;BME280;12231;42.782;23.388;2022-07-26T07:36:49;95232.69;;;40.36;31.45
19590;BME280;12231;42.782;23.388;2022-07-26T07:39:15;95239.56;;;38.93;33.18
19590;BME280;12231;42.782;23.388;2022-07-26T07:41:41;95233.75;;;38.46;34.65
19590;BME280;12231;42.782;23.388;2022-07-26T07:44:06;95236.25;;;38.17;34.88
19590;BME280;12231;42.782;23.388;2022-07-26T07:46:32;95236.97;;;37.52;35.35
19590;BME280;12231;42.782;23.388;2022-07-26T07:48:57;95222.97;;;38.46;34.44
19590;BME280;12231;42.782;23.388;2022-07-26T07:51:24;95226.22;;;37.47;34.57
19590;BME280;12231;42.782;23.388;2022-07-26T07:53:50;95226.00;;;37.84;34.62
19590;BME280;12231;42.782;23.388;2022-07-26T07:56:15;95228.06;;;36.65;36.48
19590;BME280;12231;42.782;23.388;2022-07-26T07:58:40;95223.13;;;37.08;34.59
19590;BME280;12231;42.782;23.388;2022-07-26T08:01:06;95225.69;;;37.65;33.68
19590;BME280;12231;42.782;23.388;2022-07-26T08:03:31;95223.22;;;38.69;31.26
19590;BME280;12231;42.782;23.388;2022-07-26T08:05:57;95224.34;;;38.43;31.45
19590;BME280;12231;42.782;23.388;2022-07-26T08:08:22;95226.50;;;37.41;33.82
19590;BME280;12231;42.782;23.388;2022-07-26T08:10:48;95217.09;;;39.12;30.45
19590;BME280;12231;42.782;23.388;2022-07-26T08:13:14;95213.44;;;40.43;28.72
19590;BME280;12231;42.782;23.388;2022-07-26T08:15:39;95218.34;;;40.88;28.76
19590;BME280;12231;42.782;23.388;2022-07-26T08:18:04;95212.38;;;38.79;31.47
19590;BME280;12231;42.782;23.388;2022-07-26T08:20:30;95205.81;;;40.73;29.44
19590;BME280;12231;42.782;23.388;2022-07-26T08:22:55;95201.28;;;39.39;32.04
19590;BME280;12231;42.782;23.388;2022-07-26T08:25:21;95196.94;;;41.84;28.21
19590;BME280;12231;42.782;23.388;2022-07-26T08:27:46;95193.72;;;43.50;26.78
19590;BME280;12231;42.782;23.388;2022-07-26T08:30:12;95190.47;;;43.26;26.40
19590;BME280;12231;42.782;23.388;2022-07-26T08:32:37;95187.34;;;43.90;25.60
19590;BME280;12231;42.782;23.388;2022-07-26T08:35:03;95179.91;;;45.05;24.50
19590;BME280;12231;42.782;23.388;2022-07-26T08:37:29;95188.63;;;44.76;23.88
19590;BME280;12231;42.782;23.388;2022-07-26T08:39:54;95184.69;;;43.41;25.65
19590;BME280;12231;42.782;23.388;2022-07-26T08:42:20;95182.44;;;42.67;27.04
19590;BME280;12231;42.782;23.388;2022-07-26T08:44:50;95191.19;;;41.35;28.25
19590;BME280;12231;42.782;23.388;2022-07-26T08:47:17;95183.00;;;41.59;28.43
19590;BME280;12231;42.782;23.388;2022-07-26T08:49:43;95191.28;;;40.41;30.04
19590;BME280;12231;42.782;23.388;2022-07-26T08:52:10;95180.66;;;42.62;27.05
19590;BME280;12231;42.782;23.388;2022-07-26T08:54:36;95177.84;;;42.08;26.35
19590;BME280;12231;42.782;23.388;2022-07-26T08:57:06;95184.75;;;43.63;25.69
19590;BME280;12231;42.782;23.388;2022-07-26T08:59:31;95181.22;;;45.41;24.31
19590;BME280;12231;42.782;23.388;2022-07-26T09:02:00;95181.16;;;44.99;23.68
19590;BME280;12231;42.782;23.388;2022-07-26T09:04:28;95177.16;;;43.96;25.04
19590;BME280;12231;42.782;23.388;2022-07-26T09:09:23;95180.28;;;42.82;25.56
19590;BME280;12231;42.782;23.388;2022-07-26T09:11:49;95174.91;;;40.98;28.20
19590;BME280;12231;42.782;23.388;2022-07-26T09:14:14;95174.53;;;43.33;25.64
19590;BME280;12231;42.782;23.388;2022-07-26T09:16:39;95173.47;;;44.53;23.29
19590;BME280;12231;42.782;23.388;2022-07-26T09:19:15;95171.97;;;44.69;23.35
19590;BME280;12231;42.782;23.388;2022-07-26T09:21:42;95175.34;;;40.86;26.99
19590;BME280;12231;42.782;23.388;2022-07-26T09:24:08;95174.84;;;41.03;25.55
19590;BME280;12231;42.782;23.388;2022-07-26T09:26:34;95169.94;;;39.43;27.97
19590;BME280;12231;42.782;23.388;2022-07-26T09:29:11;95175.19;;;39.25;28.30
19590;BME280;12231;42.782;23.388;2022-07-26T09:31:38;95178.09;;;39.33;29.24
19590;BME280;12231;42.782;23.388;2022-07-26T09:34:05;95173.44;;;40.11;27.93
19590;BME280;12231;42.782;23.388;2022-07-26T09:36:31;95163.16;;;41.45;25.67
19590;BME280;12231;42.782;23.388;2022-07-26T09:39:02;95162.63;;;40.63;26.98
19590;BME280;12231;42.782;23.388;2022-07-26T09:43:59;95152.19;;;43.72;24.16
19590;BME280;12231;42.782;23.388;2022-07-26T09:46:27;95159.56;;;44.54;23.40
19590;BME280;12231;42.782;23.388;2022-07-26T09:48:53;95152.03;;;44.60;22.46
19590;BME280;12231;42.782;23.388;2022-07-26T09:51:37;95156.16;;;44.18;22.61
19590;BME280;12231;42.782;23.388;2022-07-26T09:54:03;95150.38;;;44.90;21.61
19590;BME280;12231;42.782;23.388;2022-07-26T09:56:49;95152.13;;;44.16;20.36
19590;BME280;12231;42.782;23.388;2022-07-26T09:59:18;95149.16;;;45.04;19.72
19590;BME280;12231;42.782;23.388;2022-07-26T10:01:44;95144.78;;;44.78;19.12
19590;BME280;12231;42.782;23.388;2022-07-26T10:04:10;95141.16;;;44.60;20.09
19590;BME280;12231;42.782;23.388;2022-07-26T10:06:36;95145.81;;;45.33;18.46
19590;BME280;12231;42.782;23.388;2022-07-26T10:09:02;95143.66;;;44.96;18.23
19590;BME280;12231;42.782;23.388;2022-07-26T10:11:34;95136.78;;;44.50;19.30
19590;BME280;12231;42.782;23.388;2022-07-26T10:19:46;95136.38;;;41.06;21.34
19590;BME280;12231;42.782;23.388;2022-07-26T10:22:25;95130.97;;;41.25;22.57
19590;BME280;12231;42.782;23.388;2022-07-26T10:24:54;95124.00;;;41.56;22.35
19590;BME280;12231;42.782;23.388;2022-07-26T10:27:39;95121.34;;;41.69;23.52
19590;BME280;12231;42.782;23.388;2022-07-26T10:33:00;95112.59;;;41.03;20.53
19590;BME280;12231;42.782;23.388;2022-07-26T10:38:22;95112.75;;;40.93;21.76
19590;BME280;12231;42.782;23.388;2022-07-26T10:41:03;95109.09;;;39.22;23.03
19590;BME280;12231;42.782;23.388;2022-07-26T10:43:30;95105.78;;;38.38;24.09
19590;BME280;12231;42.782;23.388;2022-07-26T10:49:04;95103.44;;;36.24;25.74
19590;BME280;12231;42.782;23.388;2022-07-26T10:51:35;95101.56;;;35.73;26.97
19590;BME280;12231;42.782;23.388;2022-07-26T10:54:06;95099.88;;;36.65;27.35
19590;BME280;12231;42.782;23.388;2022-07-26T10:56:32;95093.25;;;37.03;27.25
19590;BME280;12231;42.782;23.388;2022-07-26T10:58:57;95088.16;;;37.62;27.58
19590;BME280;12231;42.782;23.388;2022-07-26T11:01:38;95084.13;;;37.69;26.18
19590;BME280;12231;42.782;23.388;2022-07-26T11:04:05;95080.09;;;37.57;25.88
19590;BME280;12231;42.782;23.388;2022-07-26T11:06:31;95073.06;;;37.61;26.31
19590;BME280;12231;42.782;23.388;2022-07-26T11:08:57;95071.06;;;36.51;26.90
19590;BME280;12231;42.782;23.388;2022-07-26T11:11:30;95072.13;;;36.35;27.45
19590;BME280;12231;42.782;23.388;2022-07-26T11:14:07;95064.44;;;37.03;27.30
19590;BME280;12231;42.782;23.388;2022-07-26T11:16:40;95065.03;;;37.41;27.68
19590;BME280;12231;42.782;23.388;2022-07-26T11:19:14;95060.72;;;37.35;26.88
19590;BME280;12231;42.782;23.388;2022-07-26T11:21:40;95059.91;;;37.69;26.60
19590;BME280;12231;42.782;23.388;2022-07-26T11:24:06;95051.03;;;37.49;26.25
19590;BME280;12231;42.782;23.388;2022-07-26T11:26:44;95042.06;;;37.88;25.09
19590;BME280;12231;42.782;23.388;2022-07-26T11:29:10;95032.63;;;37.96;24.88
19590;BME280;12231;42.782;23.388;2022-07-26T11:31:38;95035.06;;;37.87;25.32
19590;BME280;12231;42.782;23.388;2022-07-26T11:34:05;95033.66;;;38.05;26.10
19590;BME280;12231;42.782;23.388;2022-07-26T11:38:59;95025.28;;;38.21;25.38
19590;BME280;12231;42.782;23.388;2022-07-26T11:41:28;95026.63;;;38.19;26.22
19590;BME280;12231;42.782;23.388;2022-07-26T11:43:54;95027.63;;;38.38;25.97
19590;BME280;12231;42.782;23.388;2022-07-26T11:46:21;95024.09;;;38.37;24.85
19590;BME280;12231;42.782;23.388;2022-07-26T11:48:51;95017.88;;;38.42;25.38
19590;BME280;12231;42.782;23.388;2022-07-26T11:51:21;95020.28;;;38.43;25.50
19590;BME280;12231;42.782;23.388;2022-07-26T11:53:48;95014.13;;;38.43;24.97
19590;BME280;12231;42.782;23.388;2022-07-26T11:56:15;95025.44;;;37.61;27.23
19590;BME280;12231;42.782;23.388;2022-07-26T11:58:43;95006.75;;;37.95;25.39
19590;BME280;12231;42.782;23.388;2022-07-26T12:01:10;95007.56;;;37.95;25.76
19590;BME280;12231;42.782;23.388;2022-07-26T12:03:37;95008.44;;;37.86;25.11
19590;BME280;12231;42.782;23.388;2022-07-26T12:06:06;95002.56;;;36.53;27.08
19590;BME280;12231;42.782;23.388;2022-07-26T12:08:45;95008.34;;;36.10;28.10
19590;BME280;12231;42.782;23.388;2022-07-26T12:11:12;95001.81;;;37.13;27.20
19590;BME280;12231;42.782;23.388;2022-07-26T12:16:13;94999.03;;;37.68;27.37
19590;BME280;12231;42.782;23.388;2022-07-26T12:18:38;94989.63;;;37.71;25.82
19590;BME280;12231;42.782;23.388;2022-07-26T12:21:06;94996.88;;;37.65;26.37
19590;BME280;12231;42.782;23.388;2022-07-26T12:23:46;94994.94;;;36.30;27.22
19590;BME280;12231;42.782;23.388;2022-07-26T12:28:43;94983.81;;;36.93;26.80
19590;BME280;12231;42.782;23.388;2022-07-26T12:31:29;94982.44;;;37.06;26.56
19590;BME280;12231;42.782;23.388;2022-07-26T12:33:55;94979.47;;;37.17;25.18
19590;BME280;12231;42.782;23.388;2022-07-26T12:36:22;94985.41;;;36.94;27.43
19590;BME280;12231;42.782;23.388;2022-07-26T12:38:48;94981.84;;;37.44;25.84
19590;BME280;12231;42.782;23.388;2022-07-26T12:41:32;94976.16;;;37.71;26.77
19590;BME280;12231;42.782;23.388;2022-07-26T12:43:58;94985.75;;;36.01;27.29
19590;BME280;12231;42.782;23.388;2022-07-26T12:46:24;94972.50;;;36.86;27.87
19590;BME280;12231;42.782;23.388;2022-07-26T12:48:49;94983.25;;;37.32;26.36
19590;BME280;12231;42.782;23.388;2022-07-26T12:51:14;94980.03;;;36.84;27.08
19590;BME280;12231;42.782;23.388;2022-07-26T12:53:40;94977.84;;;37.22;26.51
19590;BME280;12231;42.782;23.388;2022-07-26T12:56:05;94969.50;;;37.43;26.35
19590;BME280;12231;42.782;23.388;2022-07-26T12:58:31;94969.22;;;37.45;25.87
19590;BME280;12231;42.782;23.388;2022-07-26T13:00:56;94974.63;;;36.74;25.94
19590;BME280;12231;42.782;23.388;2022-07-26T13:03:22;94969.00;;;36.86;26.39
19590;BME280;12231;42.782;23.388;2022-07-26T13:05:47;94960.38;;;36.59;27.12
19590;BME280;12231;42.782;23.388;2022-07-26T13:08:13;94964.69;;;37.05;26.35
19590;BME280;12231;42.782;23.388;2022-07-26T13:10:40;94961.22;;;36.94;27.49
19590;BME280;12231;42.782;23.388;2022-07-26T13:13:06;94963.91;;;36.99;27.21
19590;BME280;12231;42.782;23.388;2022-07-26T13:15:31;94957.41;;;37.15;27.29
19590;BME280;12231;42.782;23.388;2022-07-26T13:17:57;94955.53;;;36.71;26.86